sensor_id;sensor_type;location;lat;lon;timestamp;pressure;altitude;pressure_sealevel;temperature;humidity
62420;BME280;48460;51.616;5.426;2023-04-20T07:56:42;101712.03;;;8.41;71.32
62420;BME280;48460;51.616;5.426;2023-04-20T07:59:10;101710.50;;;8.63;71.28
62420;BME280;48460;51.616;5.426;2023-04-20T08:01:43;101708.16;;;8.82;70.85
62420;BME280;48460;51.616;5.426;2023-04-20T08:04:30;101714.09;;;9.17;70.76
62420;BME280;48460;51.616;5.426;2023-04-20T08:07:01;101712.72;;;9.32;67.70
62420;BME280;48460;51.616;5.426;2023-04-20T08:09:26;101715.44;;;9.29;66.96
62420;BME280;48460;51.616;5.426;2023-04-20T08:11:54;101709.81;;;9.13;67.28
62420;BME280;48460;51.616;5.426;2023-04-20T08:14:22;101704.97;;;9.01;69.14
62420;BME280;48460;51.616;5.426;2023-04-20T08:16:53;101720.38;;;9.11;68.50
62420;BME280;48460;51.616;5.426;2023-04-20T08:19:18;101706.81;;;8.99;68.74
62420;BME280;48460;51.616;5.426;2023-04-20T08:21:46;101698.03;;;8.98;68.62
62420;BME280;48460;51.616;5.426;2023-04-20T08:24:22;101700.25;;;8.84;69.90
62420;BME280;48460;51.616;5.426;2023-04-20T08:26:55;101704.56;;;8.86;69.81
62420;BME280;48460;51.616;5.426;2023-04-20T08:29:24;101706.81;;;8.99;69.63
62420;BME280;48460;51.616;5.426;2023-04-20T08:31:50;101698.22;;;8.94;69.21
62420;BME280;48460;51.616;5.426;2023-04-20T08:34:18;101693.69;;;8.99;68.78
62420;BME280;48460;51.616;5.426;2023-04-20T08:36:48;101690.75;;;9.08;69.93
62420;BME280;48460;51.616;5.426;2023-04-20T08:39:18;101694.19;;;9.36;68.19
62420;BME280;48460;51.616;5.426;2023-04-20T08:41:58;101687.41;;;9.81;67.20
62420;BME280;48460;51.616;5.426;2023-04-20T08:44:29;101673.97;;;10.14;65.43
62420;BME280;48460;51.616;5.426;2023-04-20T08:46:58;101684.44;;;10.15;65.50
62420;BME280;48460;51.616;5.426;2023-04-20T08:49:26;101679.47;;;10.08;65.11
62420;BME280;48460;51.616;5.426;2023-04-20T08:51:55;101688.75;;;10.18;65.13
62420;BME280;48460;51.616;5.426;2023-04-20T08:54:21;101678.88;;;10.23;64.46
62420;BME280;48460;51.616;5.426;2023-04-20T08:56:49;101675.88;;;10.10;65.17
62420;BME280;48460;51.616;5.426;2023-04-20T08:59:25;101670.38;;;10.16;64.49
62420;BME280;48460;51.616;5.426;2023-04-20T09:01:55;101671.88;;;10.23;64.53
62420;BME280;48460;51.616;5.426;2023-04-20T09:04:27;101675.78;;;10.37;65.27
62420;BME280;48460;51.616;5.426;2023-04-20T09:07:15;101668.88;;;10.34;64.07
62420;BME280;48460;51.616;5.426;2023-04-20T09:09:59;101656.56;;;10.58;64.54
62420;BME280;48460;51.616;5.426;2023-04-20T09:12:42;101671.94;;;11.13;64.21
62420;BME280;48460;51.616;5.426;2023-04-20T09:15:28;101673.72;;;11.53;61.16
62420;BME280;48460;51.616;5.426;2023-04-20T09:18:10;101682.59;;;11.73;59.26
62420;BME280;48460;51.616;5.426;2023-04-20T09:20:49;101668.59;;;11.50;58.67
62420;BME280;48460;51.616;5.426;2023-04-20T09:23:19;101669.13;;;11.38;59.64
62420;BME280;48460;51.616;5.426;2023-04-20T09:25:56;101662.53;;;11.28;59.71
62420;BME280;48460;51.616;5.426;2023-04-20T09:28:34;101664.28;;;11.27;60.30
62420;BME280;48460;51.616;5.426;2023-04-20T09:31:02;101659.66;;;11.12;60.64
62420;BME280;48460;51.616;5.426;2023-04-20T09:33:29;101671.97;;;11.11;60.21
62420;BME280;48460;51.616;5.426;2023-04-20T09:36:02;101664.47;;;10.80;61.68
62420;BME280;48460;51.616;5.426;2023-04-20T09:38:37;101672.50;;;10.77;62.35
62420;BME280;48460;51.616;5.426;2023-04-20T09:41:14;101665.13;;;10.63;63.08
62420;BME280;48460;51.616;5.426;2023-04-20T09:43:41;101674.47;;;10.70;62.34
62420;BME280;48460;51.616;5.426;2023-04-20T09:46:12;101664.75;;;10.51;63.63
62420;BME280;48460;51.616;5.426;2023-04-20T09:48:37;101665.97;;;10.64;63.58
62420;BME280;48460;51.616;5.426;2023-04-20T09:51:06;101671.91;;;10.47;64.59
62420;BME280;48460;51.616;5.426;2023-04-20T09:53:37;101662.03;;;10.30;64.96
62420;BME280;48460;51.616;5.426;2023-04-20T09:56:04;101657.13;;;10.19;65.96
62420;BME280;48460;51.616;5.426;2023-04-20T09:58:37;101644.66;;;10.01;65.97
62420;BME280;48460;51.616;5.426;2023-04-20T10:01:09;101657.06;;;9.97;67.06
62420;BME280;48460;51.616;5.426;2023-04-20T10:03:52;101649.63;;;9.85;67.19
62420;BME280;48460;51.616;5.426;2023-04-20T10:06:19;101654.66;;;9.66;68.10
62420;BME280;48460;51.616;5.426;2023-04-20T10:08:48;101659.25;;;9.61;68.81
62420;BME280;48460;51.616;5.426;2023-04-20T10:11:34;101648.66;;;9.38;69.98
62420;BME280;48460;51.616;5.426;2023-04-20T10:14:23;101642.50;;;9.39;70.10
62420;BME280;48460;51.616;5.426;2023-04-20T10:17:04;101645.09;;;9.40;69.74
62420;BME280;48460;51.616;5.426;2023-04-20T10:20:02;101642.59;;;9.35;70.29
62420;BME280;48460;51.616;5.426;2023-04-20T10:23:07;101644.97;;;9.43;70.86
62420;BME280;48460;51.616;5.426;2023-04-20T10:25:38;101639.56;;;9.48;70.38
62420;BME280;48460;51.616;5.426;2023-04-20T10:28:22;101648.78;;;9.59;70.19
62420;BME280;48460;51.616;5.426;2023-04-20T10:30:52;101644.25;;;9.63;69.52
62420;BME280;48460;51.616;5.426;2023-04-20T10:43:27;101628.56;;;10.34;67.36
62420;BME280;48460;51.616;5.426;2023-04-20T10:49:40;101614.91;;;11.12;64.57
62420;BME280;48460;51.616;5.426;2023-04-20T10:59:20;101622.13;;;10.86;64.39
62420;BME280;48460;51.616;5.426;2023-04-20T11:02:11;101611.34;;;10.92;63.92
62420;BME280;48460;51.616;5.426;2023-04-20T11:04:38;101615.28;;;11.45;63.46
62420;BME280;48460;51.616;5.426;2023-04-20T11:07:16;101615.63;;;12.54;59.73
62420;BME280;48460;51.616;5.426;2023-04-20T11:09:59;101610.88;;;12.80;56.85
62420;BME280;48460;51.616;5.426;2023-04-20T11:12:39;101615.03;;;12.66;55.41
62420;BME280;48460;51.616;5.426;2023-04-20T11:15:37;101609.00;;;12.64;55.60
62420;BME280;48460;51.616;5.426;2023-04-20T11:18:09;101603.06;;;12.59;53.98
62420;BME280;48460;51.616;5.426;2023-04-20T11:39:20;101577.25;;;10.89;61.17
62420;BME280;48460;51.616;5.426;2023-04-20T11:42:33;101579.44;;;11.00;59.90
62420;BME280;48460;51.616;5.426;2023-04-20T11:45:50;101568.91;;;11.00;59.68
62420;BME280;48460;51.616;5.426;2023-04-20T12:51:56;101552.47;;;12.68;74.16
62420;BME280;48460;51.616;5.426;2023-04-20T13:04:09;101534.16;;;14.47;59.74
62420;BME280;48460;51.616;5.426;2023-04-20T13:13:00;101540.19;;;12.50;66.82
62420;BME280;48460;51.616;5.426;2023-04-20T13:15:51;101534.25;;;12.27;70.17
62420;BME280;48460;51.616;5.426;2023-04-20T13:19:01;101535.66;;;12.35;69.98
62420;BME280;48460;51.616;5.426;2023-04-20T13:22:03;101535.47;;;12.20;68.10
62420;BME280;48460;51.616;5.426;2023-04-20T13:27:53;101529.28;;;11.44;65.03
62420;BME280;48460;51.616;5.426;2023-04-20T13:30:45;101532.00;;;11.02;68.76
62420;BME280;48460;51.616;5.426;2023-04-20T13:33:31;101530.19;;;11.04;67.82
62420;BME280;48460;51.616;5.426;2023-04-20T13:35:57;101524.41;;;10.73;68.20
62420;BME280;48460;51.616;5.426;2023-04-20T13:38:35;101516.63;;;10.70;69.70
62420;BME280;48460;51.616;5.426;2023-04-20T13:45:23;101516.94;;;11.05;66.53
62420;BME280;48460;51.616;5.426;2023-04-20T13:47:49;101509.56;;;11.13;65.45
62420;BME280;48460;51.616;5.426;2023-04-20T13:50:18;101509.56;;;11.13;65.15
62420;BME280;48460;51.616;5.426;2023-04-20T13:53:04;101505.34;;;11.09;64.15
62420;BME280;48460;51.616;5.426;2023-04-20T14:48:10;101472.97;;;11.66;59.59
62420;BME280;48460;51.616;5.426;2023-04-20T14:50:47;101478.97;;;11.69;59.48
62420;BME280;48460;51.616;5.426;2023-04-20T15:02:41;101479.03;;;11.68;59.64
62420;BME280;48460;51.616;5.426;2023-04-20T15:23:42;101454.44;;;12.41;55.01
62420;BME280;48460;51.616;5.426;2023-04-20T15:26:16;101441.72;;;12.67;53.33
62420;BME280;48460;51.616;5.426;2023-04-20T15:28:44;101443.97;;;12.74;53.57
62420;BME280;48460;51.616;5.426;2023-04-20T15:31:17;101441.72;;;12.67;54.39
62420;BME280;48460;51.616;5.426;2023-04-20T15:34:04;101455.31;;;12.59;54.59
62420;BME280;48460;51.616;5.426;2023-04-20T15:36:45;101454.50;;;12.40;55.72
62420;BME280;48460;51.616;5.426;2023-04-20T15:50:40;101442.53;;;11.02;61.95
62420;BME280;48460;51.616;5.426;2023-04-20T16:00:47;101455.94;;;11.35;58.79
62420;BME280;48460;51.616;5.426;2023-04-20T16:10:17;101446.78;;;11.81;58.22
62420;BME280;48460;51.616;5.426;2023-04-20T16:13:17;101435.53;;;11.78;55.94
62420;BME280;48460;51.616;5.426;2023-04-20T16:16:17;101445.53;;;11.90;56.46
62420;BME280;48460;51.616;5.426;2023-04-20T16:22:08;101442.94;;;11.89;55.84
62420;BME280;48460;51.616;5.426;2023-04-20T16:24:43;101449.06;;;11.89;52.69
62420;BME280;48460;51.616;5.426;2023-04-20T16:27:12;101437.94;;;11.82;52.99
62420;BME280;48460;51.616;5.426;2023-04-20T16:30:07;101440.84;;;11.95;51.47
62420;BME280;48460;51.616;5.426;2023-04-20T16:32:33;101443.50;;;11.95;48.88
62420;BME280;48460;51.616;5.426;2023-04-20T16:41:14;101440.16;;;12.11;51.21
62420;BME280;48460;51.616;5.426;2023-04-20T16:44:00;101436.63;;;12.10;50.07
62420;BME280;48460;51.616;5.426;2023-04-20T16:49:32;101440.53;;;12.20;51.22
62420;BME280;48460;51.616;5.426;2023-04-20T16:52:24;101438.44;;;12.27;50.25
62420;BME280;48460;51.616;5.426;2023-04-20T16:54:55;101445.41;;;12.28;50.84
62420;BME280;48460;51.616;5.426;2023-04-20T16:57:21;101445.19;;;12.15;51.91
62420;BME280;48460;51.616;5.426;2023-04-20T17:00:10;101452.75;;;12.04;52.70
62420;BME280;48460;51.616;5.426;2023-04-20T17:02:44;101451.50;;;11.94;53.31
62420;BME280;48460;51.616;5.426;2023-04-20T17:05:15;101452.97;;;11.61;54.00
62420;BME280;48460;51.616;5.426;2023-04-20T17:07:47;101448.41;;;11.46;55.73
62420;BME280;48460;51.616;5.426;2023-04-20T17:10:22;101451.84;;;11.48;54.69
62420;BME280;48460;51.616;5.426;2023-04-20T17:12:56;101443.63;;;11.16;56.37
62420;BME280;48460;51.616;5.426;2023-04-20T17:15:33;101455.78;;;11.19;56.51
62420;BME280;48460;51.616;5.426;2023-04-20T17:21:02;101447.31;;;11.12;57.94
62420;BME280;48460;51.616;5.426;2023-04-20T17:23:41;101452.69;;;11.09;58.12
62420;BME280;48460;51.616;5.426;2023-04-20T17:28:58;101445.44;;;11.14;57.11
62420;BME280;48460;51.616;5.426;2023-04-20T17:34:12;101451.66;;;11.13;56.83
62420;BME280;48460;51.616;5.426;2023-04-20T17:36:42;101439.94;;;11.00;57.37
62420;BME280;48460;51.616;5.426;2023-04-20T17:39:11;101461.06;;;10.99;58.32
62420;BME280;48460;51.616;5.426;2023-04-20T17:44:44;101458.06;;;10.87;59.26
62420;BME280;48460;51.616;5.426;2023-04-20T17:47:17;101473.78;;;10.89;59.72
62420;BME280;48460;51.616;5.426;2023-04-20T17:49:52;101462.78;;;10.79;59.86
62420;BME280;48460;51.616;5.426;2023-04-20T17:52:42;101475.75;;;10.84;59.90
62420;BME280;48460;51.616;5.426;2023-04-20T17:55:14;101469.66;;;10.83;59.55
62420;BME280;48460;51.616;5.426;2023-04-20T18:00:17;101460.81;;;10.64;61.03
62420;BME280;48460;51.616;5.426;2023-04-20T18:02:55;101465.47;;;10.57;61.73
62420;BME280;48460;51.616;5.426;2023-04-20T18:05:30;101460.34;;;10.54;61.85
62420;BME280;48460;51.616;5.426;2023-04-20T18:08:14;101475.16;;;10.57;63.06
62420;BME280;48460;51.616;5.426;2023-04-20T18:11:07;101464.22;;;10.45;63.09
62420;BME280;48460;51.616;5.426;2023-04-20T18:13:53;101482.56;;;10.47;63.81
62420;BME280;48460;51.616;5.426;2023-04-20T18:16:46;101480.53;;;10.54;61.97
62420;BME280;48460;51.616;5.426;2023-04-20T18:22:27;101492.53;;;10.39;62.66
62420;BME280;48460;51.616;5.426;2023-04-20T18:25:25;101504.41;;;10.27;63.11
62420;BME280;48460;51.616;5.426;2023-04-20T18:28:21;101482.34;;;10.08;63.42
62420;BME280;48460;51.616;5.426;2023-04-20T18:33:22;101496.94;;;9.93;64.64
62420;BME280;48460;51.616;5.426;2023-04-20T18:36:06;101484.38;;;9.79;65.35
62420;BME280;48460;51.616;5.426;2023-04-20T18:46:40;101496.53;;;9.58;66.58
62420;BME280;48460;51.616;5.426;2023-04-20T18:51:48;101504.75;;;9.49;67.36
62420;BME280;48460;51.616;5.426;2023-04-20T18:54:18;101495.56;;;9.37;67.98
62420;BME280;48460;51.616;5.426;2023-04-20T18:56:54;101505.06;;;9.40;68.20
62420;BME280;48460;51.616;5.426;2023-04-20T18:59:27;101496.69;;;9.30;68.71
62420;BME280;48460;51.616;5.426;2023-04-20T19:02:10;101503.63;;;9.31;69.02
62420;BME280;48460;51.616;5.426;2023-04-20T19:07:29;101510.25;;;9.18;70.25
62420;BME280;48460;51.616;5.426;2023-04-20T19:10:08;101512.94;;;9.16;70.39
62420;BME280;48460;51.616;5.426;2023-04-20T19:13:00;101496.63;;;9.06;71.31
62420;BME280;48460;51.616;5.426;2023-04-20T19:15:30;101494.13;;;9.03;71.51
62420;BME280;48460;51.616;5.426;2023-04-20T19:18:00;101490.72;;;9.01;72.04
62420;BME280;48460;51.616;5.426;2023-04-20T19:20:32;101499.38;;;9.03;72.26
62420;BME280;48460;51.616;5.426;2023-04-20T19:22:59;101487.31;;;8.98;72.46
62420;BME280;48460;51.616;5.426;2023-04-20T19:25:41;101502.22;;;8.97;72.79
62420;BME280;48460;51.616;5.426;2023-04-20T19:28:33;101485.13;;;8.85;73.43
62420;BME280;48460;51.616;5.426;2023-04-20T19:31:01;101501.03;;;8.81;73.66
62420;BME280;48460;51.616;5.426;2023-04-20T19:36:27;101507.16;;;8.80;73.21
62420;BME280;48460;51.616;5.426;2023-04-20T19:39:13;101508.34;;;8.71;73.52
62420;BME280;48460;51.616;5.426;2023-04-20T19:41:56;101502.00;;;8.78;72.53
62420;BME280;48460;51.616;5.426;2023-04-20T19:44:22;101508.84;;;8.82;72.40
62420;BME280;48460;51.616;5.426;2023-04-20T19:46:52;101502.03;;;8.77;72.81
62420;BME280;48460;51.616;5.426;2023-04-20T19:49:20;101505.59;;;8.74;72.78
62420;BME280;48460;51.616;5.426;2023-04-20T19:51:48;101506.59;;;8.72;73.38
62420;BME280;48460;51.616;5.426;2023-04-20T19:54:14;101503.47;;;8.85;72.57
62420;BME280;48460;51.616;5.426;2023-04-20T19:56:47;101501.34;;;8.72;74.32
62420;BME280;48460;51.616;5.426;2023-04-20T19:59:21;101517.09;;;8.72;74.16
62420;BME280;48460;51.616;5.426;2023-04-20T20:01:52;101497.19;;;8.64;74.20
62420;BME280;48460;51.616;5.426;2023-04-20T20:04:36;101513.53;;;8.73;73.77
62420;BME280;48460;51.616;5.426;2023-04-20T20:07:12;101504.97;;;8.67;75.14
62420;BME280;48460;51.616;5.426;2023-04-20T20:09:48;101508.53;;;8.65;75.32
62420;BME280;48460;51.616;5.426;2023-04-20T20:12:29;101517.25;;;8.65;75.66
62420;BME280;48460;51.616;5.426;2023-04-20T20:15:03;101500.94;;;8.57;76.06
62420;BME280;48460;51.616;5.426;2023-04-20T20:17:38;101493.28;;;8.51;76.96
62420;BME280;48460;51.616;5.426;2023-04-20T20:20:07;101500.09;;;8.57;75.90
62420;BME280;48460;51.616;5.426;2023-04-20T20:22:37;101490.66;;;8.51;76.98
62420;BME280;48460;51.616;5.426;2023-04-20T20:25:36;101498.75;;;8.70;75.60
62420;BME280;48460;51.616;5.426;2023-04-20T20:28:15;101496.03;;;8.47;76.84
62420;BME280;48460;51.616;5.426;2023-04-20T20:30:53;101503.00;;;8.48;77.65
62420;BME280;48460;51.616;5.426;2023-04-20T20:33:23;101490.19;;;8.38;78.28
62420;BME280;48460;51.616;5.426;2023-04-20T20:38:56;101485.66;;;8.43;78.54
62420;BME280;48460;51.616;5.426;2023-04-20T20:41:29;101492.84;;;8.37;78.81
62420;BME280;48460;51.616;5.426;2023-04-20T20:44:08;101493.41;;;8.47;78.11
62420;BME280;48460;51.616;5.426;2023-04-20T20:50:19;101487.59;;;8.37;79.09
62420;BME280;48460;51.616;5.426;2023-04-20T21:01:09;101484.25;;;8.32;80.67
62420;BME280;48460;51.616;5.426;2023-04-20T21:04:00;101480.72;;;8.33;80.67
62420;BME280;48460;51.616;5.426;2023-04-20T21:06:38;101475.59;;;8.30;80.13
62420;BME280;48460;51.616;5.426;2023-04-20T21:09:27;101476.56;;;8.27;80.70
62420;BME280;48460;51.616;5.426;2023-04-20T21:11:59;101480.81;;;8.30;80.88
62420;BME280;48460;51.616;5.426;2023-04-20T21:14:43;101472.28;;;8.25;81.46
62420;BME280;48460;51.616;5.426;2023-04-20T21:17:19;101468.59;;;8.30;81.24
62420;BME280;48460;51.616;5.426;2023-04-20T21:20:03;101473.69;;;8.35;80.66
62420;BME280;48460;51.616;5.426;2023-04-20T21:22:30;101483.44;;;8.30;81.94
62420;BME280;48460;51.616;5.426;2023-04-20T21:25:11;101476.66;;;8.24;82.57
62420;BME280;48460;51.616;5.426;2023-04-20T21:27:42;101474.78;;;8.28;82.42
62420;BME280;48460;51.616;5.426;2023-04-20T21:30:16;101479.13;;;8.29;82.17
62420;BME280;48460;51.616;5.426;2023-04-20T21:32:51;101486.06;;;8.30;82.31
62420;BME280;48460;51.616;5.426;2023-04-20T21:38:22;101468.94;;;8.19;83.72
62420;BME280;48460;51.616;5.426;2023-04-20T21:40:57;101487.81;;;8.31;83.07
62420;BME280;48460;51.616;5.426;2023-04-20T21:43:33;101488.13;;;8.20;83.65
62420;BME280;48460;51.616;5.426;2023-04-20T21:46:27;101494.22;;;8.20;83.61
62420;BME280;48460;51.616;5.426;2023-04-20T21:49:03;101496.81;;;8.22;84.69
62420;BME280;48460;51.616;5.426;2023-04-20T21:52:07;101501.19;;;8.21;86.64
62420;BME280;48460;51.616;5.426;2023-04-20T21:54:57;101488.22;;;8.17;88.11
62420;BME280;48460;51.616;5.426;2023-04-20T21:58:01;101490.94;;;8.14;90.44
62420;BME280;48460;51.616;5.426;2023-04-20T22:05:04;101490.50;;;7.99;94.17
62420;BME280;48460;51.616;5.426;2023-04-20T22:29:53;101485.75;;;7.54;100.00
62420;BME280;48460;51.616;5.426;2023-04-20T22:32:54;101480.69;;;7.48;100.00
62420;BME280;48460;51.616;5.426;2023-04-20T22:50:17;101460.97;;;7.37;100.00
62420;BME280;48460;51.616;5.426;2023-04-20T22:53:30;101454.31;;;7.25;100.00
62420;BME280;48460;51.616;5.426;2023-04-20T22:56:13;101450.13;;;7.19;100.00
62420;BME280;48460;51.616;5.426;2023-04-20T22:59:08;101443.88;;;7.25;100.00
62420;BME280;48460;51.616;5.426;2023-04-20T23:09:10;101430.75;;;7.26;100.00
62420;BME280;48460;51.616;5.426;2023-04-20T23:16:12;101416.75;;;7.27;100.00
62420;BME280;48460;51.616;5.426;2023-04-20T23:41:27;101384.72;;;7.19;100.00
62420;BME280;48460;51.616;5.426;2023-04-20T23:58:14;101386.19;;;7.00;100.00
